sensor_id;sensor_type;location;lat;lon;timestamp;temperature;humidity
16273;DHT22;8244;50.044;9.006;2023-06-14T00:00:43;18.10;77.70
16273;DHT22;8244;50.044;9.006;2023-06-14T00:05:45;17.90;76.50
16273;DHT22;8244;50.044;9.006;2023-06-14T00:10:47;17.70;76.40
16273;DHT22;8244;50.044;9.006;2023-06-14T00:15:50;17.60;76.20
16273;DHT22;8244;50.044;9.006;2023-06-14T00:20:55;17.50;77.90
16273;DHT22;8244;50.044;9.006;2023-06-14T00:25:57;17.40;78.60
16273;DHT22;8244;50.044;9.006;2023-06-14T00:31:00;17.30;80.50
16273;DHT22;8244;50.044;9.006;2023-06-14T00:36:02;17.10;81.50
16273;DHT22;8244;50.044;9.006;2023-06-14T00:41:04;17.00;82.50
16273;DHT22;8244;50.044;9.006;2023-06-14T00:46:07;16.80;82.30
16273;DHT22;8244;50.044;9.006;2023-06-14T00:51:09;16.80;82.80
16273;DHT22;8244;50.044;9.006;2023-06-14T00:56:10;16.70;83.50
16273;DHT22;8244;50.044;9.006;2023-06-14T01:01:14;16.50;85.00
16273;DHT22;8244;50.044;9.006;2023-06-14T01:06:22;16.40;85.10
16273;DHT22;8244;50.044;9.006;2023-06-14T01:11:35;16.30;85.40
16273;DHT22;8244;50.044;9.006;2023-06-14T01:16:41;16.20;85.70
16273;DHT22;8244;50.044;9.006;2023-06-14T01:21:45;16.10;86.30
16273;DHT22;8244;50.044;9.006;2023-06-14T01:26:55;15.90;86.40
16273;DHT22;8244;50.044;9.006;2023-06-14T01:31:57;15.90;87.30
16273;DHT22;8244;50.044;9.006;2023-06-14T01:37:00;15.80;89.10
16273;DHT22;8244;50.044;9.006;2023-06-14T01:42:05;15.70;89.30
16273;DHT22;8244;50.044;9.006;2023-06-14T01:47:07;15.70;90.10
16273;DHT22;8244;50.044;9.006;2023-06-14T01:52:09;15.60;90.00
16273;DHT22;8244;50.044;9.006;2023-06-14T01:57:12;15.50;90.40
16273;DHT22;8244;50.044;9.006;2023-06-14T02:02:14;15.50;90.80
16273;DHT22;8244;50.044;9.006;2023-06-14T02:07:16;15.40;90.50
16273;DHT22;8244;50.044;9.006;2023-06-14T02:12:19;15.30;90.00
16273;DHT22;8244;50.044;9.006;2023-06-14T02:17:21;15.30;90.00
16273;DHT22;8244;50.044;9.006;2023-06-14T02:22:22;15.30;90.00
16273;DHT22;8244;50.044;9.006;2023-06-14T02:27:25;15.20;89.90
16273;DHT22;8244;50.044;9.006;2023-06-14T02:32:27;15.20;90.10
16273;DHT22;8244;50.044;9.006;2023-06-14T02:37:29;15.10;90.20
16273;DHT22;8244;50.044;9.006;2023-06-14T02:42:32;15.10;90.30
16273;DHT22;8244;50.044;9.006;2023-06-14T02:47:33;15.00;90.00
16273;DHT22;8244;50.044;9.006;2023-06-14T02:52:35;15.00;90.40
16273;DHT22;8244;50.044;9.006;2023-06-14T02:57:38;14.90;90.60
16273;DHT22;8244;50.044;9.006;2023-06-14T03:02:40;14.90;91.00
16273;DHT22;8244;50.044;9.006;2023-06-14T03:07:43;14.70;91.30
16273;DHT22;8244;50.044;9.006;2023-06-14T03:12:46;14.70;91.40
16273;DHT22;8244;50.044;9.006;2023-06-14T03:17:48;14.60;91.80
16273;DHT22;8244;50.044;9.006;2023-06-14T03:22:51;14.50;91.80
16273;DHT22;8244;50.044;9.006;2023-06-14T03:27:56;14.40;92.20
16273;DHT22;8244;50.044;9.006;2023-06-14T03:32:57;14.30;92.40
16273;DHT22;8244;50.044;9.006;2023-06-14T03:38:01;14.30;92.60
16273;DHT22;8244;50.044;9.006;2023-06-14T03:43:05;14.20;92.40
16273;DHT22;8244;50.044;9.006;2023-06-14T03:48:09;14.20;92.60
16273;DHT22;8244;50.044;9.006;2023-06-14T03:53:11;14.10;92.60
16273;DHT22;8244;50.044;9.006;2023-06-14T03:58:14;14.20;92.80
16273;DHT22;8244;50.044;9.006;2023-06-14T04:03:16;14.20;93.00
16273;DHT22;8244;50.044;9.006;2023-06-14T04:08:17;14.30;92.90
16273;DHT22;8244;50.044;9.006;2023-06-14T04:13:21;14.30;93.20
16273;DHT22;8244;50.044;9.006;2023-06-14T04:18:23;14.40;93.10
16273;DHT22;8244;50.044;9.006;2023-06-14T04:23:24;14.40;93.20
16273;DHT22;8244;50.044;9.006;2023-06-14T04:28:30;14.50;93.30
16273;DHT22;8244;50.044;9.006;2023-06-14T04:33:31;14.60;93.30
16273;DHT22;8244;50.044;9.006;2023-06-14T04:38:33;14.70;93.40
16273;DHT22;8244;50.044;9.006;2023-06-14T04:43:36;15.00;93.30
16273;DHT22;8244;50.044;9.006;2023-06-14T04:48:39;15.20;93.10
16273;DHT22;8244;50.044;9.006;2023-06-14T04:53:41;15.70;93.10
16273;DHT22;8244;50.044;9.006;2023-06-14T04:58:45;16.20;91.60
16273;DHT22;8244;50.044;9.006;2023-06-14T05:03:47;16.80;90.20
16273;DHT22;8244;50.044;9.006;2023-06-14T05:08:50;17.60;87.30
16273;DHT22;8244;50.044;9.006;2023-06-14T05:13:53;18.40;83.70
16273;DHT22;8244;50.044;9.006;2023-06-14T05:18:55;19.30;82.60
16273;DHT22;8244;50.044;9.006;2023-06-14T05:23:57;20.40;79.90
16273;DHT22;8244;50.044;9.006;2023-06-14T05:29:00;21.50;75.80
16273;DHT22;8244;50.044;9.006;2023-06-14T05:34:03;22.60;72.60
16273;DHT22;8244;50.044;9.006;2023-06-14T05:39:04;23.50;68.80
16273;DHT22;8244;50.044;9.006;2023-06-14T05:44:09;24.10;68.90
16273;DHT22;8244;50.044;9.006;2023-06-14T05:49:10;24.80;67.80
16273;DHT22;8244;50.044;9.006;2023-06-14T05:54:12;25.80;65.40
16273;DHT22;8244;50.044;9.006;2023-06-14T05:59:15;26.60;62.20
16273;DHT22;8244;50.044;9.006;2023-06-14T06:04:17;27.20;61.30
16273;DHT22;8244;50.044;9.006;2023-06-14T06:09:19;27.80;59.80
16273;DHT22;8244;50.044;9.006;2023-06-14T06:14:22;28.20;58.70
16273;DHT22;8244;50.044;9.006;2023-06-14T06:19:23;28.20;58.90
16273;DHT22;8244;50.044;9.006;2023-06-14T06:24:25;28.50;59.20
16273;DHT22;8244;50.044;9.006;2023-06-14T06:29:28;28.70;57.70
16273;DHT22;8244;50.044;9.006;2023-06-14T06:34:30;29.10;56.70
16273;DHT22;8244;50.044;9.006;2023-06-14T06:39:32;29.40;57.50
16273;DHT22;8244;50.044;9.006;2023-06-14T06:44:35;29.80;57.10
16273;DHT22;8244;50.044;9.006;2023-06-14T06:49:37;29.80;56.30
16273;DHT22;8244;50.044;9.006;2023-06-14T06:54:38;29.60;55.50
16273;DHT22;8244;50.044;9.006;2023-06-14T06:59:41;29.50;54.50
16273;DHT22;8244;50.044;9.006;2023-06-14T07:04:44;29.50;56.70
16273;DHT22;8244;50.044;9.006;2023-06-14T07:09:46;30.00;55.60
16273;DHT22;8244;50.044;9.006;2023-06-14T07:14:49;30.10;54.30
16273;DHT22;8244;50.044;9.006;2023-06-14T07:19:50;30.30;55.70
16273;DHT22;8244;50.044;9.006;2023-06-14T07:24:53;31.00;53.90
16273;DHT22;8244;50.044;9.006;2023-06-14T07:29:56;31.50;53.00
16273;DHT22;8244;50.044;9.006;2023-06-14T07:34:58;32.00;52.00
16273;DHT22;8244;50.044;9.006;2023-06-14T07:40:00;31.90;52.60
16273;DHT22;8244;50.044;9.006;2023-06-14T07:45:06;31.90;50.60
16273;DHT22;8244;50.044;9.006;2023-06-14T07:50:08;32.30;51.70
16273;DHT22;8244;50.044;9.006;2023-06-14T07:55:10;32.20;51.60
16273;DHT22;8244;50.044;9.006;2023-06-14T08:00:16;32.60;51.50
16273;DHT22;8244;50.044;9.006;2023-06-14T08:05:18;32.30;50.80
16273;DHT22;8244;50.044;9.006;2023-06-14T08:10:20;32.20;50.60
16273;DHT22;8244;50.044;9.006;2023-06-14T08:15:24;32.30;51.60
16273;DHT22;8244;50.044;9.006;2023-06-14T08:20:25;33.20;52.00
16273;DHT22;8244;50.044;9.006;2023-06-14T08:25:27;33.30;49.60
16273;DHT22;8244;50.044;9.006;2023-06-14T08:30:30;32.60;53.50
16273;DHT22;8244;50.044;9.006;2023-06-14T08:35:32;32.90;50.50
16273;DHT22;8244;50.044;9.006;2023-06-14T08:40:36;32.30;52.20
16273;DHT22;8244;50.044;9.006;2023-06-14T08:45:39;32.10;50.20
16273;DHT22;8244;50.044;9.006;2023-06-14T08:50:41;32.10;50.50
16273;DHT22;8244;50.044;9.006;2023-06-14T08:55:43;31.80;51.70
16273;DHT22;8244;50.044;9.006;2023-06-14T09:00:46;31.30;51.60
16273;DHT22;8244;50.044;9.006;2023-06-14T09:05:48;31.30;50.90
16273;DHT22;8244;50.044;9.006;2023-06-14T09:10:50;31.50;51.40
16273;DHT22;8244;50.044;9.006;2023-06-14T09:15:54;31.70;50.80
16273;DHT22;8244;50.044;9.006;2023-06-14T09:20:56;31.70;50.00
16273;DHT22;8244;50.044;9.006;2023-06-14T09:25:57;32.60;50.20
16273;DHT22;8244;50.044;9.006;2023-06-14T09:31:01;32.50;50.20
16273;DHT22;8244;50.044;9.006;2023-06-14T09:36:03;32.60;48.60
16273;DHT22;8244;50.044;9.006;2023-06-14T09:41:05;31.80;49.60
16273;DHT22;8244;50.044;9.006;2023-06-14T09:46:08;31.50;50.50
16273;DHT22;8244;50.044;9.006;2023-06-14T09:51:13;31.70;50.30
16273;DHT22;8244;50.044;9.006;2023-06-14T09:56:22;31.90;51.60
16273;DHT22;8244;50.044;9.006;2023-06-14T10:01:30;32.50;47.70
16273;DHT22;8244;50.044;9.006;2023-06-14T10:06:37;33.10;48.30
16273;DHT22;8244;50.044;9.006;2023-06-14T10:11:39;31.70;49.10
16273;DHT22;8244;50.044;9.006;2023-06-14T10:16:52;31.20;49.80
16273;DHT22;8244;50.044;9.006;2023-06-14T10:22:01;31.00;50.70
16273;DHT22;8244;50.044;9.006;2023-06-14T10:27:06;30.70;50.10
16273;DHT22;8244;50.044;9.006;2023-06-14T10:32:12;30.00;51.40
16273;DHT22;8244;50.044;9.006;2023-06-14T10:37:14;30.80;50.40
16273;DHT22;8244;50.044;9.006;2023-06-14T10:42:17;30.40;50.20
16273;DHT22;8244;50.044;9.006;2023-06-14T10:47:24;29.40;52.80
16273;DHT22;8244;50.044;9.006;2023-06-14T10:52:27;29.00;53.90
16273;DHT22;8244;50.044;9.006;2023-06-14T10:57:30;29.20;53.10
16273;DHT22;8244;50.044;9.006;2023-06-14T11:08:24;30.30;51.70
16273;DHT22;8244;50.044;9.006;2023-06-14T11:13:28;29.90;51.30
16273;DHT22;8244;50.044;9.006;2023-06-14T11:18:31;29.80;51.50
16273;DHT22;8244;50.044;9.006;2023-06-14T11:23:33;30.40;52.00
16273;DHT22;8244;50.044;9.006;2023-06-14T11:28:36;31.40;49.90
16273;DHT22;8244;50.044;9.006;2023-06-14T11:33:39;31.10;50.70
16273;DHT22;8244;50.044;9.006;2023-06-14T11:38:41;31.90;50.60
16273;DHT22;8244;50.044;9.006;2023-06-14T11:43:43;32.60;48.00
16273;DHT22;8244;50.044;9.006;2023-06-14T11:48:46;32.90;47.60
16273;DHT22;8244;50.044;9.006;2023-06-14T11:53:48;32.10;48.10
16273;DHT22;8244;50.044;9.006;2023-06-14T11:58:49;32.70;47.30
16273;DHT22;8244;50.044;9.006;2023-06-14T12:03:53;32.30;48.20
16273;DHT22;8244;50.044;9.006;2023-06-14T12:08:56;31.20;50.20
16273;DHT22;8244;50.044;9.006;2023-06-14T12:13:57;31.20;50.30
16273;DHT22;8244;50.044;9.006;2023-06-14T12:19:08;31.40;50.60
16273;DHT22;8244;50.044;9.006;2023-06-14T12:24:12;31.20;50.20
16273;DHT22;8244;50.044;9.006;2023-06-14T12:29:14;30.90;50.00
16273;DHT22;8244;50.044;9.006;2023-06-14T12:34:17;30.90;50.00
16273;DHT22;8244;50.044;9.006;2023-06-14T12:39:19;30.50;49.80
16273;DHT22;8244;50.044;9.006;2023-06-14T12:44:21;30.10;50.60
16273;DHT22;8244;50.044;9.006;2023-06-14T12:49:24;30.40;50.60
16273;DHT22;8244;50.044;9.006;2023-06-14T12:54:26;31.00;49.40
16273;DHT22;8244;50.044;9.006;2023-06-14T12:59:28;31.90;49.20
16273;DHT22;8244;50.044;9.006;2023-06-14T13:04:34;32.10;48.00
16273;DHT22;8244;50.044;9.006;2023-06-14T13:09:36;32.70;47.50
16273;DHT22;8244;50.044;9.006;2023-06-14T13:14:38;33.30;47.10
16273;DHT22;8244;50.044;9.006;2023-06-14T13:19:42;33.40;46.10
16273;DHT22;8244;50.044;9.006;2023-06-14T13:24:43;33.70;46.30
16273;DHT22;8244;50.044;9.006;2023-06-14T13:29:45;33.90;45.80
16273;DHT22;8244;50.044;9.006;2023-06-14T13:34:48;33.50;45.60
16273;DHT22;8244;50.044;9.006;2023-06-14T13:39:50;32.30;48.80
16273;DHT22;8244;50.044;9.006;2023-06-14T13:44:52;32.00;49.00
16273;DHT22;8244;50.044;9.006;2023-06-14T13:49:55;32.00;48.60
16273;DHT22;8244;50.044;9.006;2023-06-14T13:54:57;31.80;48.90
16273;DHT22;8244;50.044;9.006;2023-06-14T13:59:58;32.10;47.50
16273;DHT22;8244;50.044;9.006;2023-06-14T14:05:03;32.30;48.80
16273;DHT22;8244;50.044;9.006;2023-06-14T14:10:06;32.60;47.70
16273;DHT22;8244;50.044;9.006;2023-06-14T14:15:09;32.10;46.50
16273;DHT22;8244;50.044;9.006;2023-06-14T14:20:14;31.60;47.70
16273;DHT22;8244;50.044;9.006;2023-06-14T14:25:17;31.10;48.30
16273;DHT22;8244;50.044;9.006;2023-06-14T14:30:19;30.70;49.50
16273;DHT22;8244;50.044;9.006;2023-06-14T14:35:25;30.70;47.80
16273;DHT22;8244;50.044;9.006;2023-06-14T14:40:30;31.10;48.40
16273;DHT22;8244;50.044;9.006;2023-06-14T14:45:32;31.60;47.50
16273;DHT22;8244;50.044;9.006;2023-06-14T14:50:35;31.90;49.10
16273;DHT22;8244;50.044;9.006;2023-06-14T14:55:37;31.80;47.50
16273;DHT22;8244;50.044;9.006;2023-06-14T15:00:40;31.70;48.40
16273;DHT22;8244;50.044;9.006;2023-06-14T15:05:43;31.30;49.30
16273;DHT22;8244;50.044;9.006;2023-06-14T15:10:45;30.60;50.20
16273;DHT22;8244;50.044;9.006;2023-06-14T15:15:47;30.40;50.60
16273;DHT22;8244;50.044;9.006;2023-06-14T15:20:50;30.90;49.50
16273;DHT22;8244;50.044;9.006;2023-06-14T15:25:52;31.30;48.40
16273;DHT22;8244;50.044;9.006;2023-06-14T15:30:54;31.20;48.50
16273;DHT22;8244;50.044;9.006;2023-06-14T15:35:57;31.20;49.20
16273;DHT22;8244;50.044;9.006;2023-06-14T15:40:58;31.50;48.20
16273;DHT22;8244;50.044;9.006;2023-06-14T15:46:00;31.80;47.60
16273;DHT22;8244;50.044;9.006;2023-06-14T15:51:03;32.00;47.60
16273;DHT22;8244;50.044;9.006;2023-06-14T15:56:05;31.60;48.40
16273;DHT22;8244;50.044;9.006;2023-06-14T16:01:07;30.90;50.00
16273;DHT22;8244;50.044;9.006;2023-06-14T16:06:10;30.50;50.50
16273;DHT22;8244;50.044;9.006;2023-06-14T16:11:12;30.00;50.40
16273;DHT22;8244;50.044;9.006;2023-06-14T16:16:13;29.70;51.40
16273;DHT22;8244;50.044;9.006;2023-06-14T16:21:16;29.50;51.70
16273;DHT22;8244;50.044;9.006;2023-06-14T16:26:18;29.50;52.00
16273;DHT22;8244;50.044;9.006;2023-06-14T16:31:20;29.90;51.80
16273;DHT22;8244;50.044;9.006;2023-06-14T16:36:24;29.90;51.30
16273;DHT22;8244;50.044;9.006;2023-06-14T16:41:25;29.80;52.00
16273;DHT22;8244;50.044;9.006;2023-06-14T16:46:28;29.30;52.90
16273;DHT22;8244;50.044;9.006;2023-06-14T16:51:31;29.10;52.60
16273;DHT22;8244;50.044;9.006;2023-06-14T16:56:33;28.80;52.00
16273;DHT22;8244;50.044;9.006;2023-06-14T17:01:35;28.50;53.30
16273;DHT22;8244;50.044;9.006;2023-06-14T17:06:39;28.10;53.40
16273;DHT22;8244;50.044;9.006;2023-06-14T17:11:41;28.00;54.40
16273;DHT22;8244;50.044;9.006;2023-06-14T17:16:42;27.60;54.80
16273;DHT22;8244;50.044;9.006;2023-06-14T17:21:46;27.30;55.50
16273;DHT22;8244;50.044;9.006;2023-06-14T17:26:52;27.20;55.60
16273;DHT22;8244;50.044;9.006;2023-06-14T17:31:54;27.10;55.50
16273;DHT22;8244;50.044;9.006;2023-06-14T17:36:57;27.00;56.80
16273;DHT22;8244;50.044;9.006;2023-06-14T17:41:59;26.80;56.20
16273;DHT22;8244;50.044;9.006;2023-06-14T17:47:00;26.50;56.40
16273;DHT22;8244;50.044;9.006;2023-06-14T17:52:04;26.40;56.30
16273;DHT22;8244;50.044;9.006;2023-06-14T17:57:06;26.20;57.50
16273;DHT22;8244;50.044;9.006;2023-06-14T18:02:07;26.10;57.70
16273;DHT22;8244;50.044;9.006;2023-06-14T18:07:10;25.80;57.60
16273;DHT22;8244;50.044;9.006;2023-06-14T18:12:12;25.70;58.20
16273;DHT22;8244;50.044;9.006;2023-06-14T18:17:14;25.60;57.50
16273;DHT22;8244;50.044;9.006;2023-06-14T18:22:17;25.40;57.70
16273;DHT22;8244;50.044;9.006;2023-06-14T18:27:19;25.20;58.60
16273;DHT22;8244;50.044;9.006;2023-06-14T18:32:20;25.00;58.70
16273;DHT22;8244;50.044;9.006;2023-06-14T18:37:23;24.90;59.00
16273;DHT22;8244;50.044;9.006;2023-06-14T18:42:26;24.70;59.30
16273;DHT22;8244;50.044;9.006;2023-06-14T18:47:27;24.60;59.30
16273;DHT22;8244;50.044;9.006;2023-06-14T18:52:30;24.50;60.00
16273;DHT22;8244;50.044;9.006;2023-06-14T18:57:32;24.40;60.20
16273;DHT22;8244;50.044;9.006;2023-06-14T19:02:34;24.20;60.50
16273;DHT22;8244;50.044;9.006;2023-06-14T19:07:37;24.10;62.20
16273;DHT22;8244;50.044;9.006;2023-06-14T19:12:38;23.90;61.50
16273;DHT22;8244;50.044;9.006;2023-06-14T19:17:40;23.70;62.30
16273;DHT22;8244;50.044;9.006;2023-06-14T19:22:43;23.60;63.00
16273;DHT22;8244;50.044;9.006;2023-06-14T19:27:46;23.40;63.30
16273;DHT22;8244;50.044;9.006;2023-06-14T19:32:48;23.20;64.00
16273;DHT22;8244;50.044;9.006;2023-06-14T19:37:53;23.10;64.30
16273;DHT22;8244;50.044;9.006;2023-06-14T19:42:54;23.00;64.70
16273;DHT22;8244;50.044;9.006;2023-06-14T19:47:56;22.80;65.00
16273;DHT22;8244;50.044;9.006;2023-06-14T19:52:59;22.70;65.70
16273;DHT22;8244;50.044;9.006;2023-06-14T19:58:01;22.50;66.10
16273;DHT22;8244;50.044;9.006;2023-06-14T20:03:03;22.40;66.60
16273;DHT22;8244;50.044;9.006;2023-06-14T20:08:06;22.20;67.00
16273;DHT22;8244;50.044;9.006;2023-06-14T20:13:07;22.00;67.50
16273;DHT22;8244;50.044;9.006;2023-06-14T20:18:09;21.90;68.30
16273;DHT22;8244;50.044;9.006;2023-06-14T20:23:12;21.70;69.10
16273;DHT22;8244;50.044;9.006;2023-06-14T20:28:14;21.60;70.00
16273;DHT22;8244;50.044;9.006;2023-06-14T20:33:16;21.50;70.30
16273;DHT22;8244;50.044;9.006;2023-06-14T20:38:19;21.30;70.50
16273;DHT22;8244;50.044;9.006;2023-06-14T20:43:20;21.10;71.30
16273;DHT22;8244;50.044;9.006;2023-06-14T20:48:22;21.00;71.10
16273;DHT22;8244;50.044;9.006;2023-06-14T20:53:25;20.90;71.60
16273;DHT22;8244;50.044;9.006;2023-06-14T20:58:27;20.70;72.50
16273;DHT22;8244;50.044;9.006;2023-06-14T21:03:28;20.60;72.40
16273;DHT22;8244;50.044;9.006;2023-06-14T21:08:31;20.50;73.00
16273;DHT22;8244;50.044;9.006;2023-06-14T21:13:33;20.30;73.30
16273;DHT22;8244;50.044;9.006;2023-06-14T21:18:35;20.20;73.80
16273;DHT22;8244;50.044;9.006;2023-06-14T21:23:38;20.10;75.10
16273;DHT22;8244;50.044;9.006;2023-06-14T21:28:40;19.90;75.30
16273;DHT22;8244;50.044;9.006;2023-06-14T21:33:42;19.80;75.70
16273;DHT22;8244;50.044;9.006;2023-06-14T21:38:45;19.60;75.80
16273;DHT22;8244;50.044;9.006;2023-06-14T21:43:47;19.50;76.60
16273;DHT22;8244;50.044;9.006;2023-06-14T21:48:49;19.30;77.60
16273;DHT22;8244;50.044;9.006;2023-06-14T21:53:52;19.20;77.10
16273;DHT22;8244;50.044;9.006;2023-06-14T21:58:54;19.10;77.50
16273;DHT22;8244;50.044;9.006;2023-06-14T22:03:55;19.10;78.10
16273;DHT22;8244;50.044;9.006;2023-06-14T22:08:58;18.90;77.90
16273;DHT22;8244;50.044;9.006;2023-06-14T22:14:00;18.80;78.30
16273;DHT22;8244;50.044;9.006;2023-06-14T22:19:03;18.70;79.00
16273;DHT22;8244;50.044;9.006;2023-06-14T22:24:07;18.40;79.80
16273;DHT22;8244;50.044;9.006;2023-06-14T22:29:09;18.30;80.30
16273;DHT22;8244;50.044;9.006;2023-06-14T22:34:11;18.20;80.90
16273;DHT22;8244;50.044;9.006;2023-06-14T22:39:14;18.10;81.50
16273;DHT22;8244;50.044;9.006;2023-06-14T22:44:16;18.00;82.00
16273;DHT22;8244;50.044;9.006;2023-06-14T22:49:18;17.90;82.40
16273;DHT22;8244;50.044;9.006;2023-06-14T22:54:23;17.80;82.40
16273;DHT22;8244;50.044;9.006;2023-06-14T22:59:24;17.70;83.00
16273;DHT22;8244;50.044;9.006;2023-06-14T23:04:27;17.70;83.60
16273;DHT22;8244;50.044;9.006;2023-06-14T23:09:31;17.70;83.80
16273;DHT22;8244;50.044;9.006;2023-06-14T23:14:32;17.80;83.30
16273;DHT22;8244;50.044;9.006;2023-06-14T23:19:35;17.90;83.40
16273;DHT22;8244;50.044;9.006;2023-06-14T23:24:38;18.00;83.00
16273;DHT22;8244;50.044;9.006;2023-06-14T23:29:41;18.10;82.60
16273;DHT22;8244;50.044;9.006;2023-06-14T23:34:42;18.10;82.80
16273;DHT22;8244;50.044;9.006;2023-06-14T23:39:45;18.00;82.80
16273;DHT22;8244;50.044;9.006;2023-06-14T23:44:50;18.00;83.20
16273;DHT22;8244;50.044;9.006;2023-06-14T23:49:52;17.90;83.00
16273;DHT22;8244;50.044;9.006;2023-06-14T23:54:55;17.70;85.00
16273;DHT22;8244;50.044;9.006;2023-06-14T23:59:57;17.50;86.80
